Time;durP1;ratioP1;P1;durP2;ratioP2;P2;SDS_P1;SDS_P2;PMS_P1;PMS_P2;Temp;Humidity;BMP_temperature;BMP_pressure;BME280_temperature;BME280_humidity;BME280_pressure;Samples;Min_cycle;Max_cycle;Signal;HPM_P1;HPM_P2
2022/10/20 00:02:20;;;;;;;9.45;6.05;;;6.30;99.90;;;;;;5090542;28;20055;-45
2022/10/20 00:04:46;;;;;;;8.40;5.00;;;6.30;99.90;;;;;;5089370;28;20104;-43
2022/10/20 00:07:11;;;;;;;10.80;5.30;;;6.30;99.90;;;;;;5090680;28;20028;-44
2022/10/20 00:09:37;;;;;;;11.60;5.65;;;6.20;99.90;;;;;;5090133;28;20027;-43
2022/10/20 00:12:03;;;;;;;8.68;4.90;;;6.20;99.90;;;;;;5090431;28;20024;-43
2022/10/20 00:14:28;;;;;;;10.57;5.13;;;6.30;99.90;;;;;;5090837;28;20230;-43
2022/10/20 00:16:53;;;;;;;8.75;5.47;;;6.20;99.90;;;;;;5090572;28;20107;-43
2022/10/20 00:19:19;;;;;;;8.18;4.30;;;6.30;99.90;;;;;;5090689;28;20031;-43
2022/10/20 00:21:44;;;;;;;9.98;5.20;;;6.20;99.90;;;;;;5090142;28;20036;-43
2022/10/20 00:24:10;;;;;;;8.57;4.68;;;6.20;99.90;;;;;;5090562;28;20028;-43
2022/10/20 00:26:35;;;;;;;9.98;4.95;;;6.20;99.90;;;;;;5090822;28;20028;-42
2022/10/20 00:29:03;;;;;;;9.07;5.38;;;6.20;99.90;;;;;;5090671;28;20489;-43
2022/10/20 00:31:28;;;;;;;10.43;5.70;;;6.20;99.90;;;;;;5090248;28;20266;-44
2022/10/20 00:33:53;;;;;;;10.07;5.40;;;6.20;99.90;;;;;;5090513;28;20035;-43
2022/10/20 00:36:21;;;;;;;7.65;5.15;;;6.20;99.90;;;;;;5090468;28;20028;-46
2022/10/20 00:38:47;;;;;;;8.45;4.60;;;6.20;99.90;;;;;;5090430;28;20036;-43
2022/10/20 00:41:14;;;;;;;9.50;5.95;;;6.20;99.90;;;;;;5090264;28;20028;-42
2022/10/20 00:43:49;;;;;;;7.40;4.85;;;6.20;99.90;;;;;;5090307;28;20032;-43
2022/10/20 00:46:19;;;;;;;6.88;4.43;;;6.10;99.90;;;;;;5090407;28;20028;-43
2022/10/20 00:48:48;;;;;;;9.45;5.75;;;6.10;99.90;;;;;;5089103;28;20071;-44
2022/10/20 00:51:16;;;;;;;13.40;6.82;;;6.10;99.90;;;;;;5090035;28;20516;-43
2022/10/20 00:53:44;;;;;;;13.48;6.72;;;6.20;99.90;;;;;;5090338;28;20074;-43
2022/10/20 00:56:10;;;;;;;11.30;6.88;;;6.20;99.90;;;;;;5090307;28;20032;-43
2022/10/20 00:58:35;;;;;;;9.80;6.45;;;6.20;99.90;;;;;;5088966;28;20503;-47
2022/10/20 01:01:01;;;;;;;11.18;6.88;;;6.20;99.90;;;;;;5090171;28;20028;-44
2022/10/20 01:03:33;;;;;;;12.75;7.72;;;6.10;99.90;;;;;;5089713;28;20047;-42
2022/10/20 01:05:59;;;;;;;14.65;7.93;;;6.10;99.90;;;;;;5090114;28;20059;-45
2022/10/20 01:08:24;;;;;;;13.35;7.30;;;6.10;99.90;;;;;;5090281;28;20363;-44
2022/10/20 01:11:10;;;;;;;12.07;7.25;;;6.10;99.90;;;;;;5090615;28;20462;-44
2022/10/20 01:13:55;;;;;;;13.20;6.93;;;6.10;99.90;;;;;;5089698;28;20025;-46
2022/10/20 01:16:59;;;;;;;13.32;7.32;;;6.10;99.90;;;;;;5090182;28;20072;-44
2022/10/20 01:20:07;;;;;;;13.80;8.00;;;6.10;99.90;;;;;;5090236;28;20099;-44
2022/10/20 01:22:55;;;;;;;14.40;7.80;;;6.10;99.90;;;;;;5093420;28;20055;-46
2022/10/20 01:25:39;;;;;;;13.93;7.60;;;6.00;99.90;;;;;;5093910;28;20028;-43
2022/10/20 01:28:26;;;;;;;12.15;7.00;;;6.00;99.90;;;;;;5093719;28;20036;-44
2022/10/20 01:30:58;;;;;;;19.15;7.45;;;6.00;99.90;;;;;;5094000;28;20116;-44
2022/10/20 01:33:46;;;;;;;11.30;7.97;;;6.00;99.90;;;;;;5093570;28;20028;-45
2022/10/20 01:36:29;;;;;;;16.90;8.60;;;6.00;99.90;;;;;;5093982;28;20020;-44
2022/10/20 01:39:02;;;;;;;15.43;7.22;;;6.00;99.90;;;;;;5093872;28;20027;-47
2022/10/20 01:41:43;;;;;;;12.32;6.60;;;5.90;99.90;;;;;;5093630;28;20108;-42
2022/10/20 01:44:13;;;;;;;11.55;7.53;;;5.90;99.90;;;;;;5093814;28;20485;-45
2022/10/20 01:46:41;;;;;;;13.05;7.90;;;5.90;99.90;;;;;;5093515;28;20032;-43
2022/10/20 01:49:07;;;;;;;13.88;7.32;;;5.90;99.90;;;;;;5092502;28;20023;-42
2022/10/20 01:51:33;;;;;;;11.88;7.32;;;5.80;99.90;;;;;;5092835;28;20028;-43
2022/10/20 01:53:59;;;;;;;10.80;6.65;;;5.80;99.90;;;;;;5093541;28;20338;-42
2022/10/20 01:57:05;;;;;;;10.25;6.47;;;5.70;99.90;;;;;;5093115;28;20431;-43
2022/10/20 02:00:02;;;;;;;16.13;7.53;;;5.70;99.90;;;;;;5093166;28;20051;-51
2022/10/20 02:02:58;;;;;;;9.95;6.82;;;5.70;99.90;;;;;;5092481;28;20059;-43
2022/10/20 02:05:44;;;;;;;11.70;7.07;;;5.70;99.90;;;;;;5092424;28;20382;-44
2022/10/20 02:08:35;;;;;;;12.00;7.32;;;5.60;99.90;;;;;;5092956;28;20032;-43
2022/10/20 02:11:04;;;;;;;11.68;7.60;;;5.60;99.90;;;;;;5093116;28;20020;-45
2022/10/20 02:13:31;;;;;;;20.38;8.55;;;5.60;99.90;;;;;;5092675;28;20145;-46
2022/10/20 02:15:59;;;;;;;14.80;8.27;;;5.60;99.90;;;;;;5091566;28;20032;-46
2022/10/20 02:18:29;;;;;;;15.93;8.48;;;5.60;99.90;;;;;;5092950;28;20448;-43
2022/10/20 02:20:57;;;;;;;13.73;8.40;;;5.60;99.90;;;;;;5093013;28;20043;-44
2022/10/20 02:23:23;;;;;;;12.82;8.48;;;5.60;99.90;;;;;;5092557;28;20036;-47
2022/10/20 02:25:51;;;;;;;15.07;9.18;;;5.60;99.90;;;;;;5092455;28;20043;-46
2022/10/20 02:28:19;;;;;;;19.60;10.38;;;5.60;99.90;;;;;;5092382;28;20038;-43
2022/10/20 02:30:46;;;;;;;13.50;9.13;;;5.60;99.90;;;;;;5092464;28;20063;-45
2022/10/20 02:33:13;;;;;;;15.35;9.27;;;5.70;99.90;;;;;;5090305;28;20028;-44
2022/10/20 02:35:47;;;;;;;14.82;9.60;;;5.70;99.90;;;;;;5092267;28;20509;-45
2022/10/20 02:38:12;;;;;;;16.27;10.50;;;5.70;99.90;;;;;;5092341;28;20118;-46
2022/10/20 02:40:38;;;;;;;18.23;9.80;;;5.70;99.90;;;;;;5092158;28;20539;-43
2022/10/20 02:43:03;;;;;;;17.42;9.95;;;5.80;99.90;;;;;;5091903;28;20025;-43
2022/10/20 02:45:29;;;;;;;19.90;10.23;;;5.80;99.90;;;;;;5092195;28;20028;-43
2022/10/20 02:47:54;;;;;;;16.25;9.38;;;5.80;99.90;;;;;;5092257;28;20028;-43
2022/10/20 02:50:20;;;;;;;14.43;8.68;;;5.80;99.90;;;;;;5090503;28;20415;-42
2022/10/20 02:52:45;;;;;;;15.40;9.73;;;5.80;99.90;;;;;;5091527;28;20590;-45
2022/10/20 02:55:10;;;;;;;13.95;8.23;;;5.80;99.90;;;;;;5091581;28;20073;-42
2022/10/20 02:57:36;;;;;;;17.13;9.48;;;5.80;99.90;;;;;;5091827;28;20528;-43
2022/10/20 03:00:04;;;;;;;15.55;9.27;;;5.80;99.90;;;;;;5092014;28;20020;-43
2022/10/20 03:02:29;;;;;;;14.23;9.40;;;5.80;99.90;;;;;;5091368;28;20020;-43
2022/10/20 03:04:54;;;;;;;16.52;8.95;;;5.80;99.90;;;;;;5091603;28;20040;-44
2022/10/20 03:07:20;;;;;;;15.15;8.43;;;5.80;99.90;;;;;;5091698;28;20081;-44
2022/10/20 03:09:45;;;;;;;13.20;8.18;;;5.80;99.90;;;;;;5091635;28;20020;-43
2022/10/20 03:12:11;;;;;;;17.52;9.15;;;5.70;99.90;;;;;;5091172;28;20024;-43
2022/10/20 03:14:36;;;;;;;17.80;8.63;;;5.70;99.90;;;;;;5091583;28;20433;-42
2022/10/20 03:17:02;;;;;;;13.90;8.77;;;5.70;99.90;;;;;;5091553;28;20030;-42
2022/10/20 03:19:27;;;;;;;16.58;9.82;;;5.70;99.90;;;;;;5091563;28;20032;-42
2022/10/20 03:21:53;;;;;;;17.33;10.02;;;5.70;99.90;;;;;;5091011;28;20024;-43
2022/10/20 03:24:18;;;;;;;12.07;7.80;;;5.60;99.90;;;;;;5091517;28;20016;-42
2022/10/20 03:26:44;;;;;;;14.63;8.98;;;5.60;99.90;;;;;;5091822;28;20032;-42
2022/10/20 03:29:09;;;;;;;12.32;8.88;;;5.60;99.90;;;;;;5091472;28;20099;-42
2022/10/20 03:31:35;;;;;;;17.05;9.73;;;5.50;99.90;;;;;;5089865;28;20020;-42
2022/10/20 03:34:00;;;;;;;15.23;9.40;;;5.50;99.90;;;;;;5091332;28;20016;-40
2022/10/20 03:36:26;;;;;;;24.23;9.05;;;5.40;99.90;;;;;;5091349;28;20036;-46
2022/10/20 03:38:51;;;;;;;13.70;8.32;;;5.40;99.90;;;;;;5091281;28;20488;-43
2022/10/20 03:41:16;;;;;;;18.80;10.32;;;5.30;99.90;;;;;;5090844;28;20046;-44
2022/10/20 03:43:42;;;;;;;16.55;8.45;;;5.30;99.90;;;;;;5090248;28;20028;-47
2022/10/20 03:46:09;;;;;;;18.90;9.48;;;5.30;99.90;;;;;;5091132;28;20032;-42
2022/10/20 03:48:35;;;;;;;19.13;9.48;;;5.40;99.90;;;;;;5090994;28;20028;-43
2022/10/20 03:51:02;;;;;;;13.93;8.23;;;5.30;99.90;;;;;;5091500;28;20027;-43
2022/10/20 03:53:28;;;;;;;16.83;9.48;;;5.30;99.90;;;;;;5090484;28;20039;-45
2022/10/20 03:55:53;;;;;;;13.65;9.15;;;5.30;99.90;;;;;;5091061;28;20028;-44
2022/10/20 03:58:19;;;;;;;17.52;8.80;;;5.20;99.90;;;;;;5091036;28;20435;-45
2022/10/20 04:00:45;;;;;;;15.50;8.25;;;5.20;99.90;;;;;;5090997;28;20099;-42
2022/10/20 04:03:11;;;;;;;17.83;9.05;;;5.20;99.90;;;;;;5090435;28;20492;-42
2022/10/20 04:05:36;;;;;;;18.60;8.27;;;5.10;99.90;;;;;;5090836;28;20039;-43
2022/10/20 04:08:03;;;;;;;16.40;8.80;;;5.10;99.90;;;;;;5090892;28;20032;-44
2022/10/20 04:10:29;;;;;;;17.33;9.73;;;5.10;99.90;;;;;;5090922;28;20094;-42
2022/10/20 04:12:57;;;;;;;14.40;8.93;;;5.10;99.90;;;;;;5089049;28;20040;-43
2022/10/20 04:15:22;;;;;;;16.35;8.77;;;5.10;99.90;;;;;;5090671;28;20485;-43
2022/10/20 04:17:48;;;;;;;14.02;9.20;;;5.10;99.90;;;;;;5090720;28;20035;-43
2022/10/20 04:20:13;;;;;;;12.52;8.50;;;5.10;99.90;;;;;;5090654;28;20501;-44
2022/10/20 04:22:39;;;;;;;19.92;7.90;;;5.10;99.90;;;;;;5090125;28;20027;-43
2022/10/20 04:25:05;;;;;;;17.17;8.18;;;5.00;99.90;;;;;;5090770;28;20032;-42
2022/10/20 04:27:31;;;;;;;15.10;8.85;;;5.10;99.90;;;;;;5090548;28;20051;-43
2022/10/20 04:29:56;;;;;;;12.23;8.00;;;5.00;99.90;;;;;;5090613;28;20128;-45
2022/10/20 04:32:22;;;;;;;16.08;8.95;;;5.10;99.90;;;;;;5090098;28;20028;-43
2022/10/20 04:34:47;;;;;;;11.35;7.43;;;5.10;99.90;;;;;;5090545;28;20032;-42
2022/10/20 04:37:13;;;;;;;12.30;8.27;;;5.10;99.90;;;;;;5090573;28;20043;-43
2022/10/20 04:39:38;;;;;;;14.85;8.13;;;5.10;99.90;;;;;;5091233;28;20032;-43
2022/10/20 04:42:04;;;;;;;14.27;7.65;;;5.10;99.90;;;;;;5088871;28;20054;-43
2022/10/20 04:44:29;;;;;;;12.23;8.32;;;5.10;99.90;;;;;;5090369;28;20040;-42
2022/10/20 04:46:55;;;;;;;11.73;8.43;;;5.00;99.90;;;;;;5090247;28;20590;-44
2022/10/20 04:49:20;;;;;;;12.60;7.93;;;5.00;99.90;;;;;;5090090;28;20055;-43
2022/10/20 04:51:46;;;;;;;15.32;8.57;;;5.00;99.90;;;;;;5089649;28;20111;-43
2022/10/20 04:54:11;;;;;;;13.07;8.98;;;5.00;99.90;;;;;;5090046;28;20028;-42
2022/10/20 04:56:37;;;;;;;12.88;7.95;;;5.00;99.90;;;;;;5093940;28;20119;-43
2022/10/20 04:59:02;;;;;;;15.85;8.15;;;5.00;99.90;;;;;;5094366;28;20024;-42
2022/10/20 05:01:29;;;;;;;11.45;7.57;;;4.90;99.90;;;;;;5093949;28;20489;-42
2022/10/20 05:03:54;;;;;;;11.50;7.35;;;5.00;99.90;;;;;;5094355;28;20043;-43
2022/10/20 05:06:29;;;;;;;12.82;8.18;;;5.00;99.90;;;;;;5094162;28;20036;-45
2022/10/20 05:08:57;;;;;;;14.35;8.05;;;5.00;99.90;;;;;;5094635;28;20104;-44
2022/10/20 05:11:25;;;;;;;12.48;8.73;;;5.00;99.90;;;;;;5093690;28;20028;-42
2022/10/20 05:13:50;;;;;;;13.82;8.55;;;4.90;99.90;;;;;;5093991;28;20031;-43
2022/10/20 05:16:16;;;;;;;12.45;7.45;;;4.90;99.90;;;;;;5094131;28;20031;-44
2022/10/20 05:18:43;;;;;;;13.93;8.23;;;4.90;99.90;;;;;;5093999;28;20123;-44
2022/10/20 05:21:17;;;;;;;15.43;8.10;;;4.90;99.90;;;;;;5093714;28;20035;-43
2022/10/20 05:23:44;;;;;;;12.45;7.90;;;4.90;99.90;;;;;;5093792;28;20024;-45
2022/10/20 05:26:16;;;;;;;13.75;7.95;;;4.90;99.90;;;;;;5094153;28;20110;-42
2022/10/20 05:28:43;;;;;;;14.15;8.02;;;4.80;99.90;;;;;;5093992;28;20157;-44
2022/10/20 05:31:09;;;;;;;18.08;8.68;;;4.80;99.90;;;;;;5093773;28;20020;-42
2022/10/20 05:33:35;;;;;;;14.60;8.07;;;4.80;99.90;;;;;;5093122;28;20084;-44
2022/10/20 05:36:09;;;;;;;13.50;8.50;;;4.70;99.90;;;;;;5093707;28;20027;-43
2022/10/20 05:38:35;;;;;;;16.15;8.48;;;4.70;99.90;;;;;;5093656;28;20376;-45
2022/10/20 05:41:09;;;;;;;18.98;7.85;;;4.80;99.90;;;;;;5093783;28;20023;-44
2022/10/20 05:43:35;;;;;;;11.48;6.93;;;4.70;99.90;;;;;;5093089;28;20028;-43
2022/10/20 05:46:01;;;;;;;8.90;6.70;;;4.70;99.90;;;;;;5091974;28;20385;-44
2022/10/20 05:48:26;;;;;;;12.45;7.50;;;4.70;99.90;;;;;;5093466;28;20169;-42
2022/10/20 05:50:52;;;;;;;14.15;8.32;;;4.70;99.90;;;;;;5093623;28;20028;-44
2022/10/20 05:53:17;;;;;;;12.15;7.88;;;4.70;99.90;;;;;;5091746;28;20115;-43
2022/10/20 05:55:42;;;;;;;13.98;7.50;;;4.70;99.90;;;;;;5093717;28;20416;-43
2022/10/20 05:58:08;;;;;;;13.13;6.95;;;4.80;99.90;;;;;;5093554;28;20026;-47
2022/10/20 06:00:40;;;;;;;16.95;7.85;;;4.80;99.90;;;;;;5093478;28;20040;-43
2022/10/20 06:03:06;;;;;;;10.68;7.28;;;4.80;99.90;;;;;;5093057;28;20489;-43
2022/10/20 06:05:32;;;;;;;11.43;6.88;;;4.80;99.90;;;;;;5092989;28;20039;-44
2022/10/20 06:07:57;;;;;;;13.73;7.93;;;4.90;99.90;;;;;;5092118;28;20016;-47
2022/10/20 06:10:23;;;;;;;11.57;6.78;;;4.90;99.90;;;;;;5092972;28;20528;-46
2022/10/20 06:12:49;;;;;;;8.93;6.80;;;4.90;99.90;;;;;;5092880;28;20285;-45
2022/10/20 06:15:14;;;;;;;12.73;7.03;;;5.00;99.90;;;;;;5092843;28;20082;-43
2022/10/20 06:17:40;;;;;;;10.63;6.50;;;5.10;99.90;;;;;;5092890;28;20032;-42
2022/10/20 06:20:05;;;;;;;10.18;6.80;;;5.10;99.90;;;;;;5092885;28;20077;-43
2022/10/20 06:22:31;;;;;;;13.05;6.90;;;5.10;99.90;;;;;;5092297;28;20024;-43
2022/10/20 06:24:56;;;;;;;11.50;6.70;;;5.20;99.90;;;;;;5092796;28;20059;-42
2022/10/20 06:27:22;;;;;;;11.32;6.10;;;5.20;99.90;;;;;;5092525;28;20493;-41
2022/10/20 06:29:47;;;;;;;15.65;7.20;;;5.30;99.90;;;;;;5092494;28;20024;-42
2022/10/20 06:32:14;;;;;;;14.93;6.88;;;5.40;99.90;;;;;;5092141;28;20027;-44
2022/10/20 06:34:39;;;;;;;14.70;7.78;;;5.40;99.90;;;;;;5092735;28;20016;-42
2022/10/20 06:37:05;;;;;;;14.07;6.97;;;5.50;99.90;;;;;;5092492;28;20503;-42
2022/10/20 06:39:30;;;;;;;11.95;6.68;;;5.50;99.90;;;;;;5092486;28;20028;-43
2022/10/20 06:41:56;;;;;;;14.25;7.90;;;5.60;99.90;;;;;;5090699;28;20051;-43
2022/10/20 06:44:23;;;;;;;9.27;6.63;;;5.70;99.90;;;;;;5092354;28;20038;-44
2022/10/20 06:46:51;;;;;;;14.63;6.90;;;5.70;99.90;;;;;;5092333;28;20028;-46
2022/10/20 06:49:16;;;;;;;16.73;8.02;;;5.80;99.90;;;;;;5092265;28;20504;-43
2022/10/20 06:51:42;;;;;;;11.60;6.85;;;5.90;99.90;;;;;;5091772;28;20064;-44
2022/10/20 06:54:08;;;;;;;14.05;6.78;;;6.00;99.90;;;;;;5092227;28;20424;-45
2022/10/20 06:56:35;;;;;;;13.85;7.68;;;6.10;99.90;;;;;;5092646;28;20473;-41
2022/10/20 06:59:01;;;;;;;11.30;7.20;;;6.20;99.90;;;;;;5092254;28;20134;-42
2022/10/20 07:01:31;;;;;;;11.48;6.57;;;6.20;99.90;;;;;;5091763;28;20032;-42
2022/10/20 07:04:00;;;;;;;11.95;7.57;;;6.30;99.90;;;;;;5091947;28;20093;-42
2022/10/20 07:06:38;;;;;;;10.55;6.47;;;6.40;99.90;;;;;;5091930;28;20059;-41
2022/10/20 07:09:06;;;;;;;10.10;6.63;;;6.50;99.90;;;;;;5092009;28;20024;-43
2022/10/20 07:11:32;;;;;;;12.52;7.50;;;6.60;99.90;;;;;;5091469;28;20481;-42
2022/10/20 07:13:59;;;;;;;12.88;7.88;;;6.70;99.90;;;;;;5092171;28;20085;-42
2022/10/20 07:16:28;;;;;;;11.63;7.45;;;6.90;99.90;;;;;;5092110;28;20208;-44
2022/10/20 07:18:54;;;;;;;16.67;8.43;;;7.00;99.90;;;;;;5090414;28;20485;-45
2022/10/20 07:21:21;;;;;;;15.93;9.43;;;7.10;99.90;;;;;;5091355;28;20378;-45
2022/10/20 07:23:49;;;;;;;16.27;8.23;;;7.20;99.90;;;;;;5091632;28;20028;-43
2022/10/20 07:26:20;;;;;;;13.18;8.65;;;7.30;99.90;;;;;;5091547;28;20072;-42
2022/10/20 07:28:48;;;;;;;16.52;9.35;;;7.40;99.90;;;;;;5091619;28;20032;-42
2022/10/20 07:31:17;;;;;;;16.45;9.43;;;7.50;99.90;;;;;;5091205;28;20173;-47
2022/10/20 07:33:42;;;;;;;15.20;9.43;;;7.60;99.90;;;;;;5091331;28;20028;-42
2022/10/20 07:36:13;;;;;;;17.77;10.13;;;7.80;99.90;;;;;;5091388;28;20034;-44
2022/10/20 07:38:39;;;;;;;17.58;10.85;;;8.00;99.90;;;;;;5090136;28;20031;-46
2022/10/20 07:41:04;;;;;;;14.52;10.40;;;8.00;99.90;;;;;;5091508;28;20036;-45
2022/10/20 07:43:30;;;;;;;18.60;11.13;;;8.00;99.90;;;;;;5090822;28;20039;-46
2022/10/20 07:45:55;;;;;;;18.90;11.40;;;8.10;99.90;;;;;;5091096;28;20097;-44
2022/10/20 07:48:21;;;;;;;18.67;11.88;;;8.30;99.90;;;;;;5091146;28;20054;-44
2022/10/20 07:50:46;;;;;;;15.57;10.75;;;8.30;99.90;;;;;;5091184;28;20024;-51
2022/10/20 07:53:12;;;;;;;20.20;12.07;;;8.30;99.90;;;;;;5090405;28;20081;-43
2022/10/20 07:55:37;;;;;;;22.90;12.23;;;8.30;99.90;;;;;;5090822;28;20103;-44
2022/10/20 07:58:03;;;;;;;17.70;12.32;;;8.40;99.90;;;;;;5091054;28;20028;-41
2022/10/20 08:00:28;;;;;;;16.55;12.13;;;8.40;99.90;;;;;;5089823;28;20020;-42
2022/10/20 08:02:54;;;;;;;18.70;12.15;;;8.50;99.90;;;;;;5090542;28;20024;-43
2022/10/20 08:05:19;;;;;;;18.13;12.30;;;8.60;99.90;;;;;;5090917;28;20520;-43
2022/10/20 08:07:45;;;;;;;18.88;11.40;;;8.60;99.90;;;;;;5090729;28;20040;-46
2022/10/20 08:10:10;;;;;;;16.98;11.73;;;8.60;99.90;;;;;;5090832;28;20492;-43
2022/10/20 08:12:37;;;;;;;21.00;12.55;;;8.70;99.90;;;;;;5090561;28;20016;-45
2022/10/20 08:15:03;;;;;;;18.45;12.40;;;8.70;99.90;;;;;;5090939;28;20092;-44
2022/10/20 08:17:28;;;;;;;22.85;14.05;;;8.80;99.90;;;;;;5090679;28;20028;-43
2022/10/20 08:19:54;;;;;;;18.50;12.95;;;8.90;99.90;;;;;;5090684;28;20055;-43
2022/10/20 08:22:19;;;;;;;18.30;13.10;;;8.90;99.90;;;;;;5090156;28;20500;-46
2022/10/20 08:24:46;;;;;;;22.52;14.25;;;9.00;99.90;;;;;;5090694;28;20032;-47
2022/10/20 08:27:11;;;;;;;24.75;14.82;;;9.10;99.90;;;;;;5090676;28;20028;-44
2022/10/20 08:29:37;;;;;;;20.00;13.02;;;9.20;99.90;;;;;;5090159;28;20397;-47
2022/10/20 08:32:03;;;;;;;25.27;14.90;;;9.30;99.90;;;;;;5090221;28;20469;-46
2022/10/20 08:34:29;;;;;;;22.50;14.60;;;9.50;99.90;;;;;;5090451;28;20020;-43
2022/10/20 08:36:54;;;;;;;24.55;14.45;;;9.60;99.90;;;;;;5090913;28;20035;-45
2022/10/20 08:39:19;;;;;;;24.70;13.82;;;9.70;99.90;;;;;;5089185;28;20059;-42
2022/10/20 08:41:48;;;;;;;22.77;13.82;;;9.80;99.90;;;;;;5090295;28;20103;-45
2022/10/20 08:44:31;;;;;;;25.70;13.77;;;10.10;99.90;;;;;;5090488;28;20031;-44
2022/10/20 08:47:00;;;;;;;22.00;13.73;;;10.20;99.90;;;;;;5090466;28;20107;-45
2022/10/20 08:49:29;;;;;;;23.95;13.73;;;10.40;99.90;;;;;;5090057;28;20025;-42
2022/10/20 08:51:55;;;;;;;18.98;13.75;;;10.60;99.90;;;;;;5090288;28;20024;-45
2022/10/20 08:54:21;;;;;;;19.65;12.25;;;10.70;99.90;;;;;;5090865;28;20024;-47
2022/10/20 08:56:46;;;;;;;22.30;12.35;;;10.80;99.90;;;;;;5090304;28;20389;-43
2022/10/20 08:59:25;;;;;;;18.35;13.48;;;11.00;99.90;;;;;;5090365;28;20521;-46
2022/10/20 09:01:51;;;;;;;18.50;11.90;;;11.40;99.90;;;;;;5089841;28;20028;-43
2022/10/20 09:04:32;;;;;;;14.73;12.00;;;12.10;99.90;;;;;;5088848;28;20044;-46
2022/10/20 09:07:01;;;;;;;13.38;10.05;;;13.20;99.90;;;;;;5088877;28;20077;-48
2022/10/20 09:09:30;;;;;;;11.88;9.18;;;14.70;99.90;;;;;;5090163;28;20040;-47
2022/10/20 09:12:02;;;;;;;10.80;8.68;;;15.90;99.90;;;;;;5088459;28;20100;-46
2022/10/20 09:14:30;;;;;;;14.25;7.93;;;16.90;97.10;;;;;;5090387;28;20013;-45
2022/10/20 09:16:56;;;;;;;9.32;7.30;;;18.30;95.00;;;;;;5090157;28;20424;-45
2022/10/20 09:19:22;;;;;;;11.60;8.30;;;19.10;92.20;;;;;;5090147;28;20070;-46
2022/10/20 09:21:51;;;;;;;10.18;7.38;;;20.00;89.00;;;;;;5089806;28;20028;-45
2022/10/20 09:24:19;;;;;;;11.70;7.68;;;20.70;85.40;;;;;;5090416;28;20039;-46
2022/10/20 09:26:47;;;;;;;10.05;8.07;;;19.90;83.40;;;;;;5090559;28;20070;-46
2022/10/20 09:29:14;;;;;;;8.90;7.40;;;20.20;80.70;;;;;;5090321;28;20024;-44
2022/10/20 09:31:40;;;;;;;8.45;6.30;;;21.30;78.30;;;;;;5089768;28;20032;-45
2022/10/20 09:34:33;;;;;;;8.27;7.13;;;21.80;77.80;;;;;;5090248;28;20024;-43
2022/10/20 09:37:08;;;;;;;8.30;6.97;;;22.40;73.70;;;;;;5090250;28;20092;-45
2022/10/20 09:39:45;;;;;;;8.88;6.07;;;21.70;71.50;;;;;;5089992;28;20043;-45
2022/10/20 09:42:19;;;;;;;7.68;6.35;;;23.30;70.30;;;;;;5090775;28;20024;-49
2022/10/20 09:44:55;;;;;;;6.78;6.07;;;23.60;66.30;;;;;;5093566;28;20223;-49
2022/10/20 09:47:22;;;;;;;7.95;6.22;;;24.10;64.20;;;;;;5093778;28;20067;-45
2022/10/20 09:49:55;;;;;;;6.07;5.40;;;24.10;62.80;;;;;;5092239;28;20031;-44
2022/10/20 09:52:26;;;;;;;7.60;6.80;;;23.80;62.90;;;;;;5091640;28;20072;-47
2022/10/20 09:54:55;;;;;;;;;;;23.80;61.60;;;;;;5093727;28;20103;-47
2022/10/20 09:57:22;;;;;;;7.20;5.47;;;24.40;62.10;;;;;;5093373;28;19995;-45
2022/10/20 09:59:49;;;;;;;6.88;5.68;;;25.00;61.20;;;;;;5093300;28;20031;-43
2022/10/20 10:02:15;;;;;;;6.25;4.93;;;24.40;60.60;;;;;;5092765;28;20050;-44
2022/10/20 10:04:43;;;;;;;6.18;5.57;;;24.20;61.80;;;;;;5091848;28;20020;-43
2022/10/20 10:07:30;;;;;;;6.15;5.40;;;23.30;62.60;;;;;;5093130;28;20054;-48
2022/10/20 10:09:58;;;;;;;5.35;4.85;;;23.60;61.80;;;;;;5093075;28;20388;-47
2022/10/20 10:12:25;;;;;;;7.57;5.95;;;23.80;62.00;;;;;;5092715;28;20086;-44
2022/10/20 10:15:05;;;;;;;5.38;4.88;;;24.60;61.90;;;;;;5092980;28;20525;-45
2022/10/20 10:17:37;;;;;;;6.22;5.43;;;25.50;60.70;;;;;;5092909;28;20058;-45
2022/10/20 10:20:10;;;;;;;6.55;5.40;;;25.90;58.00;;;;;;5092912;28;20032;-43
2022/10/20 10:22:35;;;;;;;7.50;5.32;;;25.70;56.90;;;;;;5092466;28;20444;-44
2022/10/20 10:25:02;;;;;;;9.90;4.90;;;26.30;56.50;;;;;;5093053;28;20063;-48
2022/10/20 10:27:34;;;;;;;10.10;4.45;;;26.40;56.30;;;;;;5092941;28;20032;-45
2022/10/20 10:30:27;;;;;;;8.88;4.82;;;26.10;56.10;;;;;;5092851;28;20027;-45
2022/10/20 10:32:53;;;;;;;11.48;4.45;;;26.00;54.10;;;;;;5092250;28;20016;-44
2022/10/20 10:35:33;;;;;;;5.38;4.65;;;25.70;54.90;;;;;;5092619;28;20020;-45
2022/10/20 10:37:59;;;;;;;6.32;4.80;;;26.00;55.40;;;;;;5091280;28;20496;-46
2022/10/20 10:40:49;;;;;;;7.03;5.40;;;26.20;54.10;;;;;;5092488;28;20027;-45
2022/10/20 10:43:37;;;;;;;6.57;4.65;;;26.40;53.60;;;;;;5092134;28;20095;-46
2022/10/20 10:46:09;;;;;;;5.85;4.90;;;26.50;55.40;;;;;;5092330;28;20031;-45
2022/10/20 10:48:58;;;;;;;6.53;4.20;;;27.20;52.90;;;;;;5091687;28;20032;-46
2022/10/20 10:51:49;;;;;;;5.10;4.53;;;27.20;52.70;;;;;;5091923;28;20034;-47
2022/10/20 10:54:19;;;;;;;4.63;4.18;;;26.90;51.60;;;;;;5091849;28;20057;-46
2022/10/20 10:56:55;;;;;;;5.28;4.78;;;26.90;52.90;;;;;;5092160;28;20032;-48
2022/10/20 10:59:26;;;;;;;4.20;3.80;;;25.70;53.30;;;;;;5092128;28;20055;-44
2022/10/20 11:02:25;;;;;;;4.95;3.83;;;26.10;55.50;;;;;;5091693;28;20086;-45
2022/10/20 11:04:50;;;;;;;5.47;4.18;;;26.00;54.30;;;;;;5091982;28;20031;-48
2022/10/20 11:07:34;;;;;;;5.55;3.90;;;26.70;54.30;;;;;;5091886;28;20076;-47
2022/10/20 11:10:25;;;;;;;6.22;3.90;;;26.80;52.00;;;;;;5091917;28;20027;-48
2022/10/20 11:13:21;;;;;;;4.75;3.70;;;27.60;52.20;;;;;;5091713;28;20095;-46
2022/10/20 11:16:22;;;;;;;6.72;3.70;;;28.50;49.80;;;;;;5084022;28;20047;-45
2022/10/20 11:18:55;;;;;;;5.45;3.60;;;26.60;51.50;;;;;;5091761;28;20106;-43
2022/10/20 11:21:27;;;;;;;5.32;3.70;;;26.20;52.40;;;;;;5091305;28;20066;-45
2022/10/20 11:24:20;;;;;;;6.47;3.67;;;25.50;53.60;;;;;;5091665;28;20020;-46
2022/10/20 11:26:52;;;;;;;4.10;3.60;;;25.00;53.40;;;;;;5091736;28;20024;-45
2022/10/20 11:29:31;;;;;;;4.05;3.30;;;24.70;56.70;;;;;;5091562;28;20376;-45
2022/10/20 11:32:22;;;;;;;4.80;3.67;;;24.70;54.60;;;;;;5091108;28;20025;-45
2022/10/20 11:35:26;;;;;;;4.57;3.80;;;24.10;55.80;;;;;;5091657;28;20247;-45
2022/10/20 11:38:10;;;;;;;5.57;3.30;;;23.50;56.80;;;;;;5091595;28;20032;-44
2022/10/20 11:40:51;;;;;;;4.70;3.85;;;23.00;59.40;;;;;;5091359;28;20111;-44
2022/10/20 11:43:26;;;;;;;7.13;3.58;;;22.30;60.60;;;;;;5090862;28;20027;-45
2022/10/20 11:46:03;;;;;;;8.73;4.60;;;21.50;62.70;;;;;;5090127;28;20127;-48
2022/10/20 11:48:51;;;;;;;7.15;4.07;;;20.90;63.40;;;;;;5091319;28;20024;-44
2022/10/20 11:51:28;;;;;;;4.55;3.92;;;20.10;65.70;;;;;;5090450;28;20030;-45
2022/10/20 11:54:20;;;;;;;8.63;4.40;;;19.30;68.50;;;;;;5091309;28;20016;-47
2022/10/20 11:56:57;;;;;;;5.32;4.38;;;19.00;70.20;;;;;;5091063;28;20108;-44
2022/10/20 12:00:00;;;;;;;7.32;4.95;;;18.60;71.00;;;;;;5090927;28;20153;-45
2022/10/20 12:03:03;;;;;;;7.70;4.20;;;18.30;70.90;;;;;;5090441;28;20497;-44
2022/10/20 12:05:56;;;;;;;5.03;3.88;;;18.40;71.00;;;;;;5090046;28;20032;-44
2022/10/20 12:08:52;;;;;;;7.35;4.63;;;18.50;71.60;;;;;;5090991;28;20039;-43
2022/10/20 12:11:29;;;;;;;6.03;3.80;;;17.90;70.00;;;;;;5090873;28;20358;-48
2022/10/20 12:14:13;;;;;;;9.15;4.20;;;18.40;71.10;;;;;;5090820;28;20428;-45
2022/10/20 12:16:50;;;;;;;5.97;3.55;;;18.90;69.30;;;;;;5089767;28;20036;-45
2022/10/20 12:19:19;;;;;;;8.40;4.07;;;19.20;68.30;;;;;;5091035;28;20389;-45
2022/10/20 12:22:13;;;;;;;7.72;4.50;;;19.30;69.10;;;;;;5090185;28;20032;-45
2022/10/20 12:24:49;;;;;;;6.82;4.38;;;18.60;69.60;;;;;;5075049;28;20040;-44
2022/10/20 12:27:23;;;;;;;10.45;4.38;;;18.70;70.40;;;;;;5090542;28;20386;-46
2022/10/20 12:29:55;;;;;;;6.57;4.13;;;18.80;70.60;;;;;;5090597;28;20481;-44
2022/10/20 12:32:20;;;;;;;5.60;4.13;;;18.80;69.80;;;;;;5088830;28;20500;-44
2022/10/20 12:34:48;;;;;;;9.63;4.88;;;18.60;69.90;;;;;;5090540;28;20020;-46
2022/10/20 12:37:24;;;;;;;4.97;4.05;;;18.60;70.60;;;;;;5090638;28;20028;-47
2022/10/20 12:39:55;;;;;;;9.25;5.10;;;18.70;71.00;;;;;;5090499;28;20485;-48
2022/10/20 12:42:28;;;;;;;6.50;4.60;;;18.50;69.80;;;;;;5090014;28;20036;-44
2022/10/20 12:45:02;;;;;;;5.30;4.72;;;18.40;71.40;;;;;;5090542;28;20472;-47
2022/10/20 12:47:29;;;;;;;10.15;5.10;;;18.10;72.20;;;;;;5090375;28;20028;-44
2022/10/20 12:50:07;;;;;;;10.25;5.40;;;18.10;72.40;;;;;;5089924;28;20447;-45
2022/10/20 12:52:41;;;;;;;5.93;4.80;;;18.10;72.00;;;;;;5089965;28;20024;-43
2022/10/20 12:55:21;;;;;;;7.80;4.75;;;17.90;72.20;;;;;;5090133;28;20068;-44
2022/10/20 12:57:47;;;;;;;7.90;5.13;;;18.10;73.00;;;;;;5090640;28;20016;-48
2022/10/20 13:00:20;;;;;;;5.50;4.57;;;17.90;73.90;;;;;;5090340;28;20373;-44
2022/10/20 13:02:56;;;;;;;5.35;4.80;;;17.70;74.60;;;;;;5089868;28;20408;-46
2022/10/20 13:05:47;;;;;;;6.25;5.63;;;17.40;75.20;;;;;;5090074;28;20079;-47